createdAt,value
2023-05-06T00:00:51.269Z,101247.22
2023-05-06T00:02:52.847Z,101248.06
2023-05-06T00:04:54.346Z,101252.47
2023-05-06T00:06:57.273Z,101255.19
2023-05-06T00:08:59.040Z,101245.22
2023-05-06T00:11:00.594Z,101245.91
2023-05-06T00:13:02.210Z,101259.28
2023-05-06T00:15:04.084Z,101251.19
2023-05-06T00:17:05.771Z,101245.06
2023-05-06T00:19:07.533Z,101247.78
2023-05-06T00:21:09.001Z,101246.91
2023-05-06T00:23:11.024Z,101250.47
2023-05-06T00:25:12.576Z,101245.06
2023-05-06T00:27:14.209Z,101246.78
2023-05-06T00:29:16.007Z,101250.31
2023-05-06T00:31:17.573Z,101245.78
2023-05-06T00:33:19.098Z,101243.91
2023-05-06T00:35:20.663Z,101239.34
2023-05-06T00:37:22.321Z,101237.34
2023-05-06T00:39:24.426Z,101237.50
2023-05-06T00:41:26.219Z,101236.63
2023-05-06T00:43:27.715Z,101234.78
2023-05-06T00:45:29.147Z,101233.94
2023-05-06T00:47:30.948Z,101233.25
2023-05-06T00:49:32.479Z,101229.56
2023-05-06T00:51:34.052Z,101224.97
2023-05-06T00:53:35.837Z,101222.97
2023-05-06T00:55:38.032Z,101230.94
2023-05-06T00:57:40.221Z,101231.75
2023-05-06T00:59:42.254Z,101230.09
2023-05-06T01:01:43.757Z,101230.94
2023-05-06T01:03:45.340Z,101230.09
2023-05-06T01:06:07.620Z,101231.09
2023-05-06T01:08:21.428Z,101227.38
2023-05-06T01:10:22.947Z,101220.28
2023-05-06T01:12:29.199Z,101222.97
2023-05-06T01:14:30.827Z,101223.66
2023-05-06T01:16:34.866Z,101224.53
2023-05-06T01:18:38.403Z,101226.06
2023-05-06T01:20:41.992Z,101227.94
2023-05-06T01:22:44.232Z,101226.91
2023-05-06T01:24:46.756Z,101219.13
2023-05-06T01:26:48.252Z,101223.53
2023-05-06T01:28:50.036Z,101220.94
2023-05-06T01:31:09.029Z,101220.13
2023-05-06T01:33:27.177Z,101216.41
2023-05-06T01:35:31.766Z,101215.41
2023-05-06T01:37:39.100Z,101220.66
2023-05-06T01:39:41.555Z,101223.19
2023-05-06T01:41:43.829Z,101211.53
2023-05-06T01:43:47.377Z,101218.66
2023-05-06T01:45:53.254Z,101213.25
2023-05-06T01:47:55.663Z,101215.25
2023-05-06T01:49:57.826Z,101214.41
2023-05-06T01:51:59.284Z,101207.13
2023-05-06T01:54:01.276Z,101205.44
2023-05-06T01:56:02.932Z,101206.31
2023-05-06T01:58:04.478Z,101204.25
2023-05-06T02:00:08.066Z,101201.44
2023-05-06T02:02:09.643Z,101196.16
2023-05-06T02:04:11.249Z,101197.84
2023-05-06T02:06:12.717Z,101194.31
2023-05-06T02:08:14.194Z,101198.72
2023-05-06T02:10:15.759Z,101197.84
2023-05-06T02:12:17.231Z,101198.84
2023-05-06T02:14:18.683Z,101200.72
2023-05-06T02:16:21.822Z,101202.44
2023-05-06T02:18:23.492Z,101207.84
2023-05-06T02:20:24.958Z,101211.22
2023-05-06T02:22:26.403Z,101208.50
2023-05-06T02:24:27.888Z,101207.66
2023-05-06T02:26:29.295Z,101212.06
2023-05-06T02:28:30.685Z,101214.06
2023-05-06T02:30:32.330Z,101209.53
2023-05-06T02:32:33.885Z,101209.53
2023-05-06T02:34:35.351Z,101200.56
2023-05-06T02:36:36.793Z,101203.09
2023-05-06T02:38:38.309Z,101200.72
2023-05-06T02:40:39.748Z,101207.84
2023-05-06T02:42:41.263Z,101200.41
2023-05-06T02:44:42.890Z,101206.66
2023-05-06T02:46:44.339Z,101210.22
2023-05-06T02:48:46.451Z,101208.22
2023-05-06T02:50:47.985Z,101211.75
2023-05-06T02:52:49.516Z,101205.66
2023-05-06T02:54:52.676Z,101206.66
2023-05-06T02:56:54.248Z,101195.16
2023-05-06T02:58:55.716Z,101192.44
2023-05-06T03:00:57.135Z,101201.44
2023-05-06T03:02:58.658Z,101188.75
2023-05-06T03:05:00.167Z,101187.75
2023-05-06T03:07:01.602Z,101200.09
2023-05-06T03:09:03.218Z,101190.13
2023-05-06T03:11:05.835Z,101185.75
2023-05-06T03:13:08.809Z,101191.16
2023-05-06T03:15:11.139Z,101191.16
2023-05-06T03:17:13.179Z,101190.44
2023-05-06T03:19:14.760Z,101189.59
2023-05-06T03:21:16.315Z,101190.63
2023-05-06T03:23:17.800Z,101185.88
2023-05-06T03:25:19.175Z,101189.28
2023-05-06T03:27:20.678Z,101187.59
2023-05-06T03:29:22.267Z,101186.59
2023-05-06T03:31:23.803Z,101178.31
2023-05-06T03:33:25.795Z,101184.56
2023-05-06T03:35:27.649Z,101175.59
2023-05-06T03:37:30.550Z,101183.88
2023-05-06T03:39:32.263Z,101184.72
2023-05-06T03:41:33.855Z,101185.88
2023-05-06T03:43:36.067Z,101183.19
2023-05-06T03:45:37.929Z,101164.53
2023-05-06T03:47:39.444Z,101189.28
2023-05-06T03:49:41.117Z,101181.16
2023-05-06T03:51:42.616Z,101179.16
2023-05-06T03:53:44.037Z,101177.47
2023-05-06T03:55:45.582Z,101180.16
2023-05-06T03:57:47.038Z,101181.00
2023-05-06T03:59:48.487Z,101184.72
2023-05-06T04:01:51.130Z,101187.59
2023-05-06T04:03:54.418Z,101186.59
2023-05-06T04:05:55.969Z,101188.44
2023-05-06T04:07:57.396Z,101188.28
2023-05-06T04:09:58.925Z,101186.41
2023-05-06T04:12:00.372Z,101186.41
2023-05-06T04:14:01.889Z,101188.13
2023-05-06T04:16:04.171Z,101180.84
2023-05-06T04:18:07.962Z,101177.13
2023-05-06T04:20:11.366Z,101172.72
2023-05-06T04:22:13.006Z,101177.47
2023-05-06T04:24:16.311Z,101180.16
2023-05-06T04:26:17.786Z,101175.75
2023-05-06T04:28:19.231Z,101170.34
2023-05-06T04:30:21.303Z,101163.25
2023-05-06T04:32:25.329Z,101166.66
2023-05-06T04:34:27.879Z,101162.94
2023-05-06T04:36:29.439Z,101165.66
2023-05-06T04:38:32.095Z,101163.63
2023-05-06T04:40:35.248Z,101164.63
2023-05-06T04:42:36.948Z,101161.91
2023-05-06T04:44:38.372Z,101164.78
2023-05-06T04:46:39.954Z,101162.09
2023-05-06T04:48:41.567Z,101157.69
2023-05-06T04:50:43.124Z,101163.78
2023-05-06T04:52:44.586Z,101162.09
2023-05-06T04:54:46.202Z,101160.06
2023-05-06T04:56:47.656Z,101157.03
2023-05-06T04:58:49.147Z,101161.59
2023-05-06T05:00:50.803Z,101161.78
2023-05-06T05:02:52.838Z,101164.31
2023-05-06T05:04:54.381Z,101167.03
2023-05-06T05:06:55.851Z,101170.72
2023-05-06T05:08:58.739Z,101170.72
2023-05-06T05:11:00.964Z,101180.84
2023-05-06T05:13:02.871Z,101178.31
2023-05-06T05:15:04.618Z,101182.53
2023-05-06T05:17:06.153Z,101178.66
2023-05-06T05:19:09.232Z,101178.66
2023-05-06T05:21:11.116Z,101179.41
2023-05-06T05:23:12.746Z,101181.28
2023-05-06T05:25:14.620Z,101192.75
2023-05-06T05:27:16.291Z,101183.81
2023-05-06T05:29:18.211Z,101195.47
2023-05-06T05:31:19.701Z,101197.50
2023-05-06T05:33:21.409Z,101199.19
2023-05-06T05:35:23.039Z,101197.31
2023-05-06T05:37:24.652Z,101199.03
2023-05-06T05:39:26.079Z,101198.69
2023-05-06T05:41:27.666Z,101200.41
2023-05-06T05:43:29.283Z,101202.25
2023-05-06T05:45:30.934Z,101203.09
2023-05-06T05:47:32.493Z,101206.97
2023-05-06T05:49:34.215Z,101206.28
2023-05-06T05:51:35.900Z,101202.25
2023-05-06T05:53:37.855Z,101205.13
2023-05-06T05:55:39.257Z,101199.72
2023-05-06T05:57:40.833Z,101200.56
2023-05-06T05:59:42.283Z,101204.81
2023-05-06T06:01:43.907Z,101205.66
2023-05-06T06:03:45.820Z,101209.22
2023-05-06T06:05:49.231Z,101212.91
2023-05-06T06:07:50.905Z,101214.63
2023-05-06T06:09:52.361Z,101211.06
2023-05-06T06:11:54.241Z,101211.91
2023-05-06T06:13:55.746Z,101216.16
2023-05-06T06:15:57.610Z,101217.03
2023-05-06T06:17:59.178Z,101222.44
2023-05-06T06:20:01.231Z,101224.09
2023-05-06T06:22:02.755Z,101230.53
2023-05-06T06:24:04.704Z,101224.25
2023-05-06T06:26:06.449Z,101232.22
2023-05-06T06:28:08.122Z,101224.09
2023-05-06T06:30:09.952Z,101220.41
2023-05-06T06:32:11.713Z,101225.81
2023-05-06T06:34:13.356Z,101224.97
2023-05-06T06:36:14.826Z,101224.09
2023-05-06T06:38:16.368Z,101223.97
2023-05-06T06:40:17.829Z,101221.09
2023-05-06T06:42:19.246Z,101220.94
2023-05-06T06:44:20.753Z,101216.69
2023-05-06T06:46:22.193Z,101222.63
2023-05-06T06:48:23.864Z,101208.94
2023-05-06T06:50:25.547Z,101212.34
2023-05-06T06:52:27.223Z,101205.06
2023-05-06T06:54:28.752Z,101211.16
2023-05-06T06:56:31.838Z,101212.03
2023-05-06T06:58:33.413Z,101211.16
2023-05-06T07:00:34.933Z,101203.84
2023-05-06T07:02:36.446Z,101217.44
2023-05-06T07:04:38.083Z,101221.16
2023-05-06T07:06:39.630Z,101229.25
2023-05-06T07:08:41.200Z,101216.56
2023-05-06T07:10:42.687Z,101221.28
2023-05-06T07:12:44.176Z,101224.69
2023-05-06T07:14:45.649Z,101220.16
2023-05-06T07:16:48.746Z,101219.13
2023-05-06T07:18:53.794Z,101222.69
2023-05-06T07:20:55.344Z,101218.09
2023-05-06T07:22:56.844Z,101222.69
2023-05-06T07:24:58.461Z,101231.50
2023-05-06T07:27:01.179Z,101224.22
2023-05-06T07:29:04.111Z,101224.06
2023-05-06T07:31:05.691Z,101223.06
2023-05-06T07:33:07.729Z,101217.81
2023-05-06T07:35:09.586Z,101217.63
2023-05-06T07:37:11.264Z,101223.91
2023-05-06T07:39:13.943Z,101226.44
2023-05-06T07:41:15.495Z,101224.41
2023-05-06T07:43:17.188Z,101224.41
2023-05-06T07:45:19.726Z,101228.00
2023-05-06T07:47:28.457Z,101229.81
2023-05-06T07:49:33.165Z,101228.00
2023-05-06T07:51:35.038Z,101229.81
2023-05-06T07:53:38.098Z,101232.22
2023-05-06T07:55:39.657Z,101232.06
2023-05-06T07:57:41.179Z,101231.22
2023-05-06T07:59:52.229Z,101240.34
2023-05-06T08:01:53.879Z,101241.19
2023-05-06T08:03:55.417Z,101240.66
2023-05-06T08:05:56.893Z,101247.94
2023-05-06T08:08:01.167Z,101237.09
2023-05-06T08:10:03.086Z,101242.69
2023-05-06T08:12:04.620Z,101245.22
2023-05-06T08:14:06.217Z,101238.81
2023-05-06T08:16:07.834Z,101244.22
2023-05-06T08:18:21.068Z,101242.22
2023-05-06T08:20:24.126Z,101241.34
2023-05-06T08:22:25.972Z,101241.50
2023-05-06T08:24:28.046Z,101238.63
2023-05-06T08:26:29.486Z,101238.81
2023-05-06T08:28:31.588Z,101237.28
2023-05-06T08:30:33.117Z,101239.81
2023-05-06T08:32:34.640Z,101242.34
2023-05-06T08:34:36.428Z,101213.69
2023-05-06T08:36:37.948Z,101229.34
2023-05-06T08:38:39.555Z,101233.59
2023-05-06T08:40:44.637Z,101228.19
2023-05-06T08:42:47.717Z,101238.88
2023-05-06T08:44:51.753Z,101237.88
2023-05-06T08:46:53.443Z,101231.59
2023-05-06T08:48:54.898Z,101234.28
2023-05-06T08:50:57.433Z,101230.75
2023-05-06T08:53:00.758Z,101229.75
2023-05-06T08:55:04.986Z,101233.28
2023-05-06T08:57:10.919Z,101235.00
2023-05-06T08:59:17.759Z,101233.13
2023-05-06T09:01:19.403Z,101233.81
2023-05-06T09:03:21.166Z,101231.28
2023-05-06T09:05:22.967Z,101231.28
2023-05-06T09:07:24.697Z,101231.28
2023-05-06T09:09:26.282Z,101236.53
2023-05-06T09:11:29.441Z,101231.94
2023-05-06T09:13:31.100Z,101228.22
2023-05-06T09:15:42.254Z,101225.53
2023-05-06T09:17:43.693Z,101229.94
2023-05-06T09:19:45.341Z,101233.47
2023-05-06T09:21:48.003Z,101231.59
2023-05-06T09:23:49.563Z,101228.34
2023-05-06T09:25:51.240Z,101234.34
2023-05-06T09:28:02.749Z,101232.75
2023-05-06T09:30:08.118Z,101232.53
2023-05-06T09:32:11.518Z,101232.84
2023-05-06T09:34:13.473Z,101237.88
2023-05-06T09:36:15.392Z,101229.84
2023-05-06T09:38:17.191Z,101227.75
2023-05-06T09:40:19.061Z,101234.97
2023-05-06T09:42:22.292Z,101228.69
2023-05-06T09:44:24.457Z,101230.56
2023-05-06T09:46:27.505Z,101230.84
2023-05-06T09:48:32.206Z,101221.13
2023-05-06T09:50:33.704Z,101225.84
2023-05-06T09:52:35.696Z,101218.88
2023-05-06T09:54:37.325Z,101222.63
2023-05-06T09:56:39.073Z,101219.22
2023-05-06T09:58:40.978Z,101214.09
2023-05-06T10:00:43.720Z,101211.88
2023-05-06T10:02:45.810Z,101208.94
2023-05-06T10:04:49.081Z,101209.78
2023-05-06T10:06:51.863Z,101206.53
2023-05-06T10:08:54.703Z,101202.75
2023-05-06T10:10:56.974Z,101205.19
2023-05-06T10:12:58.566Z,101206.56
2023-05-06T10:15:00.452Z,101199.63
2023-05-06T10:17:02.858Z,101197.53
2023-05-06T10:19:06.531Z,101202.94
2023-05-06T10:21:10.316Z,101203.09
2023-05-06T10:23:12.182Z,101193.28
2023-05-06T10:25:19.307Z,101197.97
2023-05-06T10:27:23.646Z,101202.56
2023-05-06T10:29:26.326Z,101195.59
2023-05-06T10:31:30.025Z,101195.78
2023-05-06T10:33:31.557Z,101196.06
2023-05-06T10:35:42.451Z,101201.06
2023-05-06T10:37:45.742Z,101196.34
2023-05-06T10:39:47.421Z,101197.22
2023-05-06T10:41:49.031Z,101190.13
2023-05-06T10:43:56.849Z,101188.97
2023-05-06T10:46:09.202Z,101186.69
2023-05-06T10:48:10.909Z,101196.81
2023-05-06T10:50:22.537Z,101191.88
2023-05-06T10:52:24.019Z,101184.66
2023-05-06T10:54:25.557Z,101184.94
2023-05-06T10:56:27.180Z,101181.25
2023-05-06T10:58:28.723Z,101175.84
2023-05-06T11:00:33.107Z,101176.38
2023-05-06T11:02:34.607Z,101179.38
2023-05-06T11:04:37.531Z,101177.38
2023-05-06T11:06:39.020Z,101175.28
2023-05-06T11:08:40.522Z,101175.28
2023-05-06T11:10:42.333Z,101167.88
2023-05-06T11:12:45.136Z,101168.56
2023-05-06T11:14:46.757Z,101163.94
2023-05-06T11:16:49.903Z,101176.28
2023-05-06T11:18:51.820Z,101165.63
2023-05-06T11:21:05.510Z,101159.66
2023-05-06T11:23:06.985Z,101164.78
2023-05-06T11:25:08.400Z,101155.84
2023-05-06T11:27:10.573Z,101147.19
2023-05-06T11:29:12.099Z,101152.13
2023-05-06T11:31:14.133Z,101145.34
2023-05-06T11:33:18.784Z,101147.66
2023-05-06T11:35:22.907Z,101138.56
2023-05-06T11:37:28.313Z,101139.22
2023-05-06T11:39:31.224Z,101139.84
2023-05-06T11:41:32.673Z,101134.84
2023-05-06T11:43:34.206Z,101141.25
2023-05-06T11:45:42.352Z,101131.31
2023-05-06T11:47:44.571Z,101133.59
2023-05-06T11:49:46.012Z,101136.00
2023-05-06T11:51:48.155Z,101133.31
2023-05-06T11:53:49.722Z,101139.41
2023-05-06T11:55:54.055Z,101146.41
2023-05-06T11:57:55.595Z,101147.38
2023-05-06T11:59:57.014Z,101150.22
2023-05-06T12:01:59.446Z,101138.03
2023-05-06T12:04:01.949Z,101140.91
2023-05-06T12:06:03.653Z,101141.72
2023-05-06T12:08:13.314Z,101138.47
2023-05-06T12:10:21.468Z,101134.16
2023-05-06T12:12:24.099Z,101145.63
2023-05-06T12:14:25.665Z,101141.41
2023-05-06T12:16:27.623Z,101140.03
2023-05-06T12:18:29.830Z,101140.72
2023-05-06T12:20:31.448Z,101147.69
2023-05-06T12:22:32.904Z,101146.56
2023-05-06T12:24:34.427Z,101145.13
2023-05-06T12:26:43.229Z,101140.22
2023-05-06T12:28:44.978Z,101137.25
2023-05-06T12:30:46.452Z,101137.25
2023-05-06T12:32:58.220Z,101141.25
2023-05-06T12:35:05.409Z,101134.16
2023-05-06T12:37:08.532Z,101134.16
2023-05-06T12:39:11.776Z,101136.16
2023-05-06T12:41:13.569Z,101132.75
2023-05-06T12:43:15.240Z,101138.56
2023-05-06T12:45:16.743Z,101138.00
2023-05-06T12:47:22.399Z,101123.69
2023-05-06T12:49:23.998Z,101144.69
2023-05-06T12:51:28.944Z,101137.00
2023-05-06T12:53:34.981Z,101139.41
2023-05-06T12:55:37.493Z,101114.19
2023-05-06T12:57:38.916Z,101130.75
2023-05-06T12:59:40.879Z,101125.91
2023-05-06T13:01:42.421Z,101137.69
2023-05-06T13:03:44.204Z,101136.00
2023-05-06T13:05:50.233Z,101127.91
2023-05-06T13:07:51.898Z,101126.91
2023-05-06T13:09:53.377Z,101128.59
2023-05-06T13:11:55.197Z,101132.13
2023-05-06T13:13:56.682Z,101130.59
2023-05-06T13:15:58.450Z,101130.03
2023-05-06T13:18:00.115Z,101134.16
2023-05-06T13:20:03.268Z,101130.47
2023-05-06T13:22:06.248Z,101136.16
2023-05-06T13:24:08.570Z,101127.06
2023-05-06T13:26:09.985Z,101132.75
2023-05-06T13:28:11.437Z,101128.78
2023-05-06T13:30:13.120Z,101129.38
2023-05-06T13:32:14.797Z,101124.97
2023-05-06T13:34:16.378Z,101119.69
2023-05-06T13:36:17.820Z,101123.38
2023-05-06T13:38:19.229Z,101116.75
2023-05-06T13:40:20.679Z,101117.50
2023-05-06T13:42:22.078Z,101111.25
2023-05-06T13:44:24.523Z,101116.75
2023-05-06T13:46:27.184Z,101117.84
2023-05-06T13:48:28.756Z,101119.56
2023-05-06T13:50:30.204Z,101117.28
2023-05-06T13:52:31.768Z,101120.53
2023-05-06T13:54:33.348Z,101115.75
2023-05-06T13:56:34.946Z,101109.19
2023-05-06T13:58:36.456Z,101110.91
2023-05-06T14:00:38.055Z,101120.41
2023-05-06T14:02:39.580Z,101113.28
2023-05-06T14:04:41.147Z,101109.75
2023-05-06T14:06:42.766Z,101102.38
2023-05-06T14:08:44.212Z,101094.69
2023-05-06T14:10:45.710Z,101104.63
2023-05-06T14:12:47.418Z,101100.78
2023-05-06T14:14:48.822Z,101099.25
2023-05-06T14:16:53.399Z,101102.06
2023-05-06T14:18:54.908Z,101099.38
2023-05-06T14:20:56.849Z,101099.25
2023-05-06T14:22:58.280Z,101098.75
2023-05-06T14:24:59.888Z,101100.63
2023-05-06T14:27:01.585Z,101095.50
2023-05-06T14:29:03.736Z,101097.06
2023-05-06T14:31:05.524Z,101101.16
2023-05-06T14:33:07.202Z,101101.16
2023-05-06T14:35:09.420Z,101103.53
2023-05-06T14:37:11.062Z,101098.84
2023-05-06T14:39:14.081Z,101092.16
2023-05-06T14:41:15.772Z,101099.56
2023-05-06T14:43:17.252Z,101087.75
2023-05-06T14:45:18.961Z,101082.44
2023-05-06T14:47:20.621Z,101079.78
2023-05-06T14:49:22.532Z,101079.22
2023-05-06T14:51:24.304Z,101072.94
2023-05-06T14:53:25.898Z,101075.47
2023-05-06T14:55:27.377Z,101074.63
2023-05-06T14:57:28.871Z,101083.56
2023-05-06T14:59:30.532Z,101065.53
2023-05-06T15:01:33.586Z,101065.38
2023-05-06T15:03:36.345Z,101075.56
2023-05-06T15:05:37.982Z,101076.97
2023-05-06T15:07:39.735Z,101076.97
2023-05-06T15:09:43.888Z,101078.50
2023-05-06T15:11:45.944Z,101072.09
2023-05-06T15:13:47.568Z,101076.34
2023-05-06T15:15:48.985Z,101073.66
2023-05-06T15:17:52.291Z,101074.47
2023-05-06T15:19:54.037Z,101078.88
2023-05-06T15:21:55.994Z,101070.63
2023-05-06T15:23:57.525Z,101070.63
2023-05-06T15:25:59.104Z,101077.88
2023-05-06T15:28:00.598Z,101069.44
2023-05-06T15:30:04.394Z,101072.16
2023-05-06T15:32:06.201Z,101073.16
2023-05-06T15:34:09.139Z,101080.41
2023-05-06T15:36:10.795Z,101077.19
2023-05-06T15:38:12.214Z,101077.72
2023-05-06T15:40:14.048Z,101084.28
2023-05-06T15:42:18.464Z,101084.81
2023-05-06T15:44:20.997Z,101088.81
2023-05-06T15:46:22.947Z,101089.84
2023-05-06T15:48:24.384Z,101091.06
2023-05-06T15:52:33.003Z,101089.06
2023-05-06T15:54:37.600Z,101089.44
2023-05-06T15:56:41.402Z,101095.00
2023-05-06T15:58:43.818Z,101088.06
2023-05-06T16:00:45.461Z,101085.75
2023-05-06T16:02:46.976Z,101086.97
2023-05-06T16:04:48.673Z,101085.97
2023-05-06T16:06:50.796Z,101092.53
2023-05-06T16:08:52.248Z,101084.44
2023-05-06T16:10:53.925Z,101079.88
2023-05-06T16:12:55.600Z,101080.59
2023-05-06T16:14:57.116Z,101076.19
2023-05-06T16:16:58.864Z,101074.19
2023-05-06T16:19:00.436Z,101076.88
2023-05-06T16:21:01.984Z,101073.03
2023-05-06T16:23:03.507Z,101084.81
2023-05-06T16:25:05.174Z,101076.72
2023-05-06T16:27:06.621Z,101078.25
2023-05-06T16:29:08.101Z,101074.72
2023-05-06T16:31:09.587Z,101079.97
2023-05-06T16:33:12.023Z,101080.13
2023-05-06T16:35:13.514Z,101083.81
2023-05-06T16:37:15.427Z,101071.47
2023-05-06T16:39:16.894Z,101068.63
2023-05-06T16:41:18.398Z,101071.25
2023-05-06T16:43:19.921Z,101066.00
2023-05-06T16:45:21.501Z,101061.44
2023-05-06T16:47:26.286Z,101067.38
2023-05-06T16:49:28.422Z,101064.50
2023-05-06T16:51:30.047Z,101058.81
2023-05-06T16:53:31.532Z,101059.97
2023-05-06T16:55:33.119Z,101056.13
2023-05-06T16:57:34.628Z,101049.00
2023-05-06T16:59:36.379Z,101052.50
2023-05-06T17:01:37.918Z,101054.03
2023-05-06T17:03:40.299Z,101049.47
2023-05-06T17:05:42.060Z,101049.19
2023-05-06T17:07:43.556Z,101046.47
2023-05-06T17:09:45.057Z,101047.31
2023-05-06T17:11:46.747Z,101047.63
2023-05-06T17:13:48.287Z,101052.03
2023-05-06T17:15:49.729Z,101049.34
2023-05-06T17:17:51.557Z,101020.13
2023-05-06T17:19:53.240Z,101052.19
2023-05-06T17:21:54.708Z,101058.59
2023-05-06T17:23:56.257Z,101050.63
2023-05-06T17:25:57.872Z,101049.81
2023-05-06T17:27:59.581Z,101044.25
2023-05-06T17:30:01.584Z,101049.81
2023-05-06T17:32:03.131Z,101051.81
2023-05-06T17:34:04.798Z,101046.41
2023-05-06T17:36:06.570Z,101043.69
2023-05-06T17:38:08.316Z,101041.34
2023-05-06T17:40:09.921Z,101038.09
2023-05-06T17:42:11.408Z,101032.00
2023-05-06T17:44:12.931Z,101034.69
2023-05-06T17:46:14.553Z,101036.16
2023-05-06T17:48:16.106Z,101038.75
2023-05-06T17:50:17.543Z,101036.06
2023-05-06T17:52:19.189Z,101031.69
2023-05-06T17:54:20.616Z,101036.94
2023-05-06T17:56:22.115Z,101032.00
2023-05-06T17:58:23.700Z,101030.28
2023-05-06T18:00:25.277Z,101029.47
2023-05-06T18:02:26.771Z,101032.69
2023-05-06T18:04:28.478Z,101029.00
2023-05-06T18:06:29.963Z,101040.34
2023-05-06T18:08:31.578Z,101042.88
2023-05-06T18:10:33.076Z,101043.56
2023-05-06T18:12:34.568Z,101046.56
2023-05-06T18:14:36.035Z,101039.31
2023-05-06T18:16:37.876Z,101042.72
2023-05-06T18:18:39.485Z,101045.41
2023-05-06T18:20:42.064Z,101041.47
2023-05-06T18:22:43.814Z,101037.09
2023-05-06T18:24:45.266Z,101028.50
2023-05-06T18:26:46.717Z,101035.16
2023-05-06T18:28:48.893Z,101031.44
2023-05-06T18:30:50.780Z,101026.75
2023-05-06T18:32:53.847Z,101029.75
2023-05-06T18:34:57.072Z,101031.75
2023-05-06T18:36:58.659Z,101028.84
2023-05-06T18:39:04.500Z,101031.28
2023-05-06T18:41:07.858Z,101035.84
2023-05-06T18:43:09.327Z,101034.31
2023-05-06T18:45:11.296Z,101032.16
2023-05-06T18:47:13.232Z,101032.81
2023-05-06T18:49:14.927Z,101033.16
2023-05-06T18:51:17.356Z,101031.63
2023-05-06T18:53:18.963Z,101037.31
2023-05-06T18:55:20.488Z,101040.00
2023-05-06T18:57:22.584Z,101040.00
2023-05-06T18:59:24.484Z,101044.03
2023-05-06T19:01:26.463Z,101047.84
2023-05-06T19:03:28.329Z,101042.91
2023-05-06T19:05:29.876Z,101046.72
2023-05-06T19:07:31.294Z,101051.22
2023-05-06T19:09:36.811Z,101047.69
2023-05-06T19:11:38.691Z,101055.50
2023-05-06T19:13:41.419Z,101053.81
2023-05-06T19:15:42.874Z,101057.34
2023-05-06T19:17:44.390Z,101055.34
2023-05-06T19:19:48.460Z,101058.22
2023-05-06T19:21:49.946Z,101057.19
2023-05-06T19:23:51.497Z,101072.38
2023-05-06T19:25:53.067Z,101063.66
2023-05-06T19:27:54.864Z,101071.03
2023-05-06T19:29:56.555Z,101062.47
2023-05-06T19:31:58.650Z,101056.91
2023-05-06T19:34:00.281Z,101062.59
2023-05-06T19:36:01.761Z,101056.22
2023-05-06T19:38:03.251Z,101050.50
2023-05-06T19:40:05.099Z,101046.81
2023-05-06T19:42:06.725Z,101049.34
2023-05-06T19:44:08.251Z,101052.72
2023-05-06T19:46:10.582Z,101046.19
2023-05-06T19:48:14.473Z,101048.41
2023-05-06T19:50:15.994Z,101050.81
2023-05-06T19:52:17.616Z,101050.50
2023-05-06T19:54:19.841Z,101053.03
2023-05-06T19:56:21.563Z,101040.06
2023-05-06T19:58:23.254Z,101038.59
2023-05-06T20:00:27.237Z,101046.22
2023-05-06T20:02:29.213Z,101037.81
2023-05-06T20:04:30.937Z,101036.53
2023-05-06T20:06:32.973Z,101036.06
2023-05-06T20:08:35.159Z,101042.81
2023-05-06T20:10:37.192Z,101048.09
2023-05-06T20:12:38.876Z,101041.69
2023-05-06T20:14:40.499Z,101048.63
2023-05-06T20:16:42.057Z,101046.59
2023-05-06T20:18:43.528Z,101047.44
2023-05-06T20:20:45.048Z,101044.59
2023-05-06T20:22:46.551Z,101049.69
2023-05-06T20:24:48.174Z,101054.06
2023-05-06T20:26:49.864Z,101052.06
2023-05-06T20:28:53.111Z,101049.88
2023-05-06T20:30:55.676Z,101044.31
2023-05-06T20:32:57.250Z,101046.88
2023-05-06T20:34:58.708Z,101045.00
2023-05-06T20:37:01.244Z,101037.06
2023-05-06T20:39:02.814Z,101038.75
2023-05-06T20:41:04.441Z,101037.59
2023-05-06T20:43:05.870Z,101044.69
2023-05-06T20:45:07.712Z,101004.75
2023-05-06T20:47:12.446Z,101042.53
2023-05-06T20:49:13.946Z,101039.81
2023-05-06T20:51:15.658Z,101042.19
2023-05-06T20:53:17.341Z,101046.59
2023-05-06T20:55:20.540Z,101042.72
2023-05-06T20:57:22.197Z,101047.94
2023-05-06T20:59:23.744Z,101046.81
2023-05-06T21:01:25.854Z,101044.09
2023-05-06T21:03:27.559Z,101039.72
2023-05-06T21:05:29.181Z,101044.09
2023-05-06T21:07:30.833Z,101046.94
2023-05-06T21:09:32.430Z,101052.34
2023-05-06T21:11:33.887Z,101053.34
2023-05-06T21:13:35.427Z,101055.94
2023-05-06T21:15:37.704Z,101058.47
2023-05-06T21:17:39.237Z,101060.31
2023-05-06T21:19:40.741Z,101058.47
2023-05-06T21:21:42.287Z,101048.66
2023-05-06T21:23:43.804Z,101048.66
2023-05-06T21:25:45.528Z,101059.28
2023-05-06T21:27:47.217Z,101064.69
2023-05-06T21:29:48.692Z,101061.88
2023-05-06T21:31:50.081Z,101062.88
2023-05-06T21:33:54.088Z,101059.47
2023-05-06T21:35:55.738Z,101066.56
2023-05-06T21:37:57.659Z,101055.88
2023-05-06T21:39:59.966Z,101062.88
2023-05-06T21:42:01.604Z,101068.78
2023-05-06T21:44:06.398Z,101075.22
2023-05-06T21:46:08.010Z,101070.81
2023-05-06T21:48:09.569Z,101070.81
2023-05-06T21:50:11.524Z,101069.97
2023-05-06T21:52:13.040Z,101070.97
2023-05-06T21:54:14.898Z,101065.72
2023-05-06T21:56:19.561Z,101069.44
2023-05-06T21:58:21.136Z,101069.06
2023-05-06T22:00:22.927Z,101077.50
2023-05-06T22:02:24.688Z,101068.69
2023-05-06T22:04:26.207Z,101068.84
2023-05-06T22:06:27.626Z,101073.09
2023-05-06T22:08:29.957Z,101071.91
2023-05-06T22:10:31.438Z,101077.16
2023-05-06T22:12:32.933Z,101073.44
2023-05-06T22:14:41.073Z,101079.03
2023-05-06T22:16:45.649Z,101082.72
2023-05-06T22:18:47.423Z,101082.19
2023-05-06T22:20:50.681Z,101074.44
2023-05-06T22:22:52.376Z,101073.03
2023-05-06T22:24:54.109Z,101069.66
2023-05-06T22:26:56.119Z,101073.38
2023-05-06T22:28:57.646Z,101078.06
2023-05-06T22:30:59.177Z,101084.31
2023-05-06T22:33:00.659Z,101088.72
2023-05-06T22:35:02.150Z,101094.28
2023-05-06T22:37:10.091Z,101098.00
2023-05-06T22:39:11.565Z,101110.50
2023-05-06T22:41:13.299Z,101114.91
2023-05-06T22:43:14.784Z,101125.00
2023-05-06T22:45:16.485Z,101158.31
2023-05-06T22:47:19.736Z,101170.09
2023-05-06T22:49:21.208Z,101177.50
2023-05-06T22:51:22.653Z,101186.78
2023-05-06T22:53:24.370Z,101189.47
2023-05-06T22:55:26.162Z,101184.09
2023-05-06T22:57:27.753Z,101166.34
2023-05-06T22:59:29.496Z,101162.75
2023-05-06T23:01:32.275Z,101152.97
2023-05-06T23:03:34.003Z,101137.78
2023-05-06T23:05:35.476Z,101132.38
2023-05-06T23:07:36.885Z,101128.81
2023-05-06T23:09:38.324Z,101119.16
2023-05-06T23:11:40.112Z,101121.03
2023-05-06T23:13:41.518Z,101116.63
2023-05-06T23:15:42.954Z,101105.13
2023-05-06T23:17:44.676Z,101107.00